Startpagina
METAR-TAF:

METAR-TAF

Vliegvelden :

Yap, Micronesië

breedte: 09-29N, lengte: 138-05E, hoogte: 28 m

Actueel weer

Dit bericht is 21 minuten geleden gemaakt, om 05:52 UTC
Wind 8 kt uit het westzuidwesten
Temperatuur 27°C
Vochtigheid 89%
Druk 1008 hPa
Zicht: 16.1 km
Verspreide wolken op 1600 ft, Stapelwolken.
Gebroken wolken op 13000 ft
Gebroken wolken op 30000 ft
lichte regenbuien

METAR: PTYA 200552Z 24008KT 10SM -SHRA SCT016TCU BKN130 BKN300 27/25 A2976 RMK SHRAB30 TCU S-W AND OHD SLP079 60024 8/271 T02690248 10310 20269 58014

Tijdstip: 16:13 (06:13 UTC)

Verwachting

Dit bericht is 53 minuten geleden gemaakt, om 05:20 UTC
Verwachting geldig van 20 om 06 UTC tot 21 om 06 UTC
Wind 7 kt uit het oosten
Zicht: 10 km
Weinig wolken op 1600 ft
Verspreide wolken op 13000 ft
buien in de omgeving

TAF: PTYA 200520Z 2006/2106 09007KT P6SM VCSH FEW016 SCT130

Waarnemingen en weersverwachtingen van meer dan 4000 vliegvelden (METAR en TAF).

De beschikbare stations zijn de gele en rode punten op de kaart.

Ga met uw muis naar het station om de naam te zien.

Klik dan om waarnemingen en weersverwachtingen te zien.

kaart wijzigen: klik op de groene knoppen met een zwart kruis om in te zoomen, op de groene knop met een streepje om uit te zoomen of op de groene pijlen voor aangrenzende kaarten.


METAR-TAF: